Time;durP1;ratioP1;P1;durP2;ratioP2;P2;SDS_P1;SDS_P2;PMS_P1;PMS_P2;Temp;Humidity;BMP_temperature;BMP_pressure;BME280_temperature;BME280_humidity;BME280_pressure;Samples;Min_cycle;Max_cycle;Signal;HPM_P1;HPM_P2
2022/08/06 00:01:53;;;;;;;2.25;0.80;;;18.20;59.10;;;;;;4931209;29;20572;-53
2022/08/06 00:04:21;;;;;;;2.42;0.80;;;18.10;59.20;;;;;;4932054;29;20051;-56
2022/08/06 00:06:50;;;;;;;6.90;0.82;;;18.10;59.30;;;;;;4932206;29;20047;-52
2022/08/06 00:09:17;;;;;;;4.63;0.68;;;18.00;59.40;;;;;;4931905;29;20071;-56
2022/08/06 00:11:47;;;;;;;3.53;0.93;;;17.90;59.60;;;;;;4931892;29;20055;-56
2022/08/06 00:14:25;;;;;;;0.98;0.50;;;17.90;60.00;;;;;;4931587;29;20059;-54
2022/08/06 00:16:52;;;;;;;4.28;1.00;;;17.90;60.20;;;;;;4930447;29;20075;-54
2022/08/06 00:19:20;;;;;;;4.50;0.50;;;17.90;60.30;;;;;;4931996;29;20142;-51
2022/08/06 00:21:48;;;;;;;2.60;0.70;;;18.00;60.40;;;;;;4931814;29;20138;-53
2022/08/06 00:24:17;;;;;;;2.63;0.45;;;17.90;60.40;;;;;;4932092;29;20138;-53
2022/08/06 00:26:54;;;;;;;1.83;0.75;;;17.90;60.60;;;;;;4931950;29;20048;-56
2022/08/06 00:29:32;;;;;;;12.07;1.27;;;17.90;60.80;;;;;;4931164;29;20067;-54
2022/08/06 00:32:13;;;;;;;6.13;0.93;;;17.90;61.00;;;;;;4931615;29;20051;-53
2022/08/06 00:34:49;;;;;;;2.85;0.70;;;17.90;61.20;;;;;;4931569;29;20051;-55
2022/08/06 00:37:17;;;;;;;4.47;0.73;;;17.80;61.20;;;;;;4931971;29;20051;-52
2022/08/06 00:39:45;;;;;;;2.95;1.00;;;17.80;61.60;;;;;;4931100;28;20293;-51
2022/08/06 00:42:12;;;;;;;2.83;0.80;;;17.80;61.70;;;;;;4931700;29;20082;-53
2022/08/06 00:44:42;;;;;;;2.45;0.88;;;17.60;62.00;;;;;;4930194;29;20079;-52
2022/08/06 00:47:13;;;;;;;2.17;1.35;;;17.60;62.20;;;;;;4930257;29;20051;-55
2022/08/06 00:50:01;;;;;;;2.05;1.05;;;17.60;62.70;;;;;;4931580;28;20066;-55
2022/08/06 00:52:32;;;;;;;2.55;0.98;;;17.60;62.70;;;;;;4931434;29;20321;-54
2022/08/06 00:55:01;;;;;;;4.68;1.90;;;17.40;63.20;;;;;;4931394;28;20127;-56
2022/08/06 00:57:27;;;;;;;5.80;1.15;;;17.40;63.30;;;;;;4931132;29;20581;-55
2022/08/06 00:59:56;;;;;;;5.40;1.70;;;17.40;63.70;;;;;;4931025;29;20058;-54
2022/08/06 01:02:22;;;;;;;2.70;1.85;;;17.40;63.70;;;;;;4931359;29;20131;-56
2022/08/06 01:04:52;;;;;;;4.93;1.63;;;17.40;64.00;;;;;;4930925;29;20047;-53
2022/08/06 01:07:32;;;;;;;2.80;1.42;;;17.30;64.20;;;;;;4931196;29;20475;-55
2022/08/06 01:10:18;;;;;;;5.07;1.90;;;17.30;64.30;;;;;;4928311;29;20063;-54
2022/08/06 01:12:56;;;;;;;5.50;1.33;;;17.30;64.40;;;;;;4569870;29;10000905;-54
2022/08/06 01:15:23;;;;;;;5.25;1.88;;;17.20;64.60;;;;;;4926011;29;20062;-55
2022/08/06 01:18:11;;;;;;;6.20;2.25;;;17.20;64.80;;;;;;4912356;29;20052;-55
2022/08/06 01:20:40;;;;;;;6.68;2.17;;;17.10;65.10;;;;;;4910750;29;20082;-55
2022/08/06 01:23:44;;;;;;;7.78;2.53;;;17.20;65.20;;;;;;4912100;29;20095;-53
2022/08/06 01:26:30;;;;;;;5.57;2.05;;;17.10;65.20;;;;;;4930949;29;20051;-53
2022/08/06 01:29:15;;;;;;;3.20;2.35;;;17.10;66.10;;;;;;4931187;29;20051;-53
2022/08/06 01:31:53;;;;;;;4.38;2.28;;;17.10;67.00;;;;;;4930908;29;20566;-50
2022/08/06 01:34:31;;;;;;;6.63;2.10;;;17.10;66.80;;;;;;4903912;29;20059;-55
2022/08/06 01:37:12;;;;;;;4.13;2.40;;;17.00;66.70;;;;;;4936091;29;20543;-54
2022/08/06 01:39:40;;;;;;;7.88;2.20;;;17.00;67.70;;;;;;4935506;29;20063;-55
2022/08/06 01:42:27;;;;;;;4.90;2.72;;;17.00;66.30;;;;;;4935951;29;20596;-52
2022/08/06 01:45:03;;;;;;;6.63;2.45;;;16.90;66.60;;;;;;4936170;29;20095;-54
2022/08/06 01:47:30;;;;;;;6.93;2.72;;;16.90;67.60;;;;;;4936330;29;20379;-53
2022/08/06 01:50:19;;;;;;;3.90;2.63;;;16.80;67.30;;;;;;4936207;29;20044;-54
2022/08/06 01:52:54;;;;;;;6.45;2.70;;;16.70;67.60;;;;;;4926092;29;20067;-50
2022/08/06 01:55:27;;;;;;;7.22;3.08;;;16.70;67.80;;;;;;4936035;29;20063;-54
2022/08/06 01:58:15;;;;;;;6.80;2.25;;;16.80;68.10;;;;;;4936177;29;20056;-54
2022/08/06 02:00:55;;;;;;;4.97;2.28;;;16.70;68.20;;;;;;4936663;29;20094;-53
2022/08/06 02:03:47;;;;;;;6.38;2.80;;;16.70;68.40;;;;;;4920416;29;20307;-52
2022/08/06 02:06:32;;;;;;;8.32;2.70;;;16.70;70.50;;;;;;4922593;29;20066;-53
2022/08/06 02:09:02;;;;;;;4.80;2.38;;;16.70;69.50;;;;;;4937110;29;20102;-55
2022/08/06 02:12:02;;;;;;;6.65;2.85;;;16.60;69.30;;;;;;4922746;29;20052;-54
2022/08/06 02:14:35;;;;;;;9.02;2.90;;;16.60;70.00;;;;;;4922008;29;20067;-53
2022/08/06 02:17:02;;;;;;;7.13;2.90;;;16.50;70.40;;;;;;4935373;29;20555;-56
2022/08/06 02:19:47;;;;;;;8.82;3.35;;;16.50;70.30;;;;;;4935795;29;20115;-57
2022/08/06 02:22:35;;;;;;;8.52;3.38;;;16.40;71.30;;;;;;4922821;29;20047;-56
2022/08/06 02:25:04;;;;;;;6.50;3.03;;;16.30;71.30;;;;;;4935920;29;20091;-55
2022/08/06 02:27:50;;;;;;;5.28;3.40;;;16.30;71.90;;;;;;4936565;29;20518;-55
2022/08/06 02:30:23;;;;;;;5.55;3.33;;;16.30;72.10;;;;;;4921251;29;20074;-55
2022/08/06 02:33:02;;;;;;;5.13;3.10;;;16.20;72.00;;;;;;4935699;29;20052;-55
2022/08/06 02:35:32;;;;;;;5.53;2.95;;;16.10;72.40;;;;;;4937094;29;20083;-56
2022/08/06 02:38:08;;;;;;;12.32;3.33;;;16.10;73.10;;;;;;4935330;29;20052;-50
2022/08/06 02:40:37;;;;;;;10.27;3.95;;;16.10;73.70;;;;;;4935219;29;20392;-55
2022/08/06 02:43:12;;;;;;;8.18;3.47;;;16.00;74.40;;;;;;4935053;29;20047;-49
2022/08/06 02:45:40;;;;;;;;;;;15.90;76.00;;;;;;4918994;29;20491;-55
2022/08/06 02:48:35;;;;;;;6.60;3.42;;;16.00;78.70;;;;;;4933497;29;19922;-53
2022/08/06 02:51:06;;;;;;;5.97;3.20;;;15.90;77.10;;;;;;4898325;29;20059;-52
2022/08/06 02:54:28;;;;;;;10.02;4.75;;;15.90;75.60;;;;;;4942841;29;20102;-55
2022/08/06 02:57:00;;;;;;;9.23;4.15;;;16.00;79.00;;;;;;4933597;29;20054;-51
2022/08/06 02:59:30;;;;;;;7.72;3.95;;;15.90;76.00;;;;;;4931113;29;20064;-54
2022/08/06 03:02:06;;;;;;;7.18;3.70;;;15.90;75.90;;;;;;4918232;29;20056;-54
2022/08/06 03:04:38;;;;;;;7.03;4.03;;;15.90;76.00;;;;;;4917215;29;20492;-55
2022/08/06 03:07:14;;;;;;;8.05;3.00;;;15.90;76.30;;;;;;4932776;29;20483;-55
2022/08/06 03:09:53;;;;;;;7.53;3.72;;;15.90;76.30;;;;;;4932078;29;20051;-54
2022/08/06 03:12:22;;;;;;;9.77;3.67;;;15.90;76.40;;;;;;4931755;29;20048;-54
2022/08/06 03:14:56;;;;;;;;;;;15.90;76.70;;;;;;4931577;29;20040;-54
2022/08/06 03:17:35;;;;;;;5.55;3.60;;;15.80;81.70;;;;;;4932407;29;20435;-53
2022/08/06 03:20:02;;;;;;;6.72;3.30;;;15.70;77.50;;;;;;4931631;29;20075;-55
2022/08/06 03:22:29;;;;;;;6.97;4.18;;;15.60;78.00;;;;;;4916429;29;20055;-53
2022/08/06 03:25:08;;;;;;;9.65;4.03;;;15.60;78.50;;;;;;4914942;29;20048;-54
2022/08/06 03:27:38;;;;;;;6.03;4.13;;;15.50;79.30;;;;;;4916884;29;20044;-55
2022/08/06 03:30:14;;;;;;;9.07;4.63;;;15.60;80.30;;;;;;4931571;29;20577;-53
2022/08/06 03:33:01;;;;;;;10.73;3.88;;;15.60;80.40;;;;;;4932209;29;20083;-54
2022/08/06 03:35:47;;;;;;;6.72;3.72;;;15.60;79.80;;;;;;4931927;29;20058;-56
2022/08/06 03:38:17;;;;;;;5.97;3.63;;;15.50;79.90;;;;;;4933026;29;20059;-54
2022/08/06 03:40:45;;;;;;;10.57;4.20;;;15.50;80.30;;;;;;4932514;29;20081;-56
2022/08/06 03:43:14;;;;;;;8.43;4.63;;;15.40;80.90;;;;;;4931231;29;20043;-54
2022/08/06 03:45:56;;;;;;;6.65;4.00;;;15.40;81.10;;;;;;4931570;29;20201;-56
2022/08/06 03:48:24;;;;;;;8.80;3.92;;;15.40;81.20;;;;;;4916652;29;20054;-55
2022/08/06 03:51:05;;;;;;;6.07;4.35;;;15.40;81.50;;;;;;4931343;29;20488;-57
2022/08/06 03:53:36;;;;;;;14.75;5.70;;;15.40;81.50;;;;;;4931639;29;20078;-56
2022/08/06 03:56:04;;;;;;;9.23;4.68;;;15.30;82.10;;;;;;4915137;29;20077;-52
2022/08/06 03:58:32;;;;;;;7.30;4.90;;;15.30;82.60;;;;;;4915750;29;20083;-55
2022/08/06 04:01:01;;;;;;;5.75;4.53;;;15.20;82.80;;;;;;4915673;29;20136;-54
2022/08/06 04:03:29;;;;;;;7.40;5.03;;;15.40;83.40;;;;;;4915379;29;20135;-53
2022/08/06 04:06:09;;;;;;;11.00;4.60;;;15.20;83.20;;;;;;4930782;29;20058;-55
2022/08/06 04:08:45;;;;;;;9.13;5.10;;;15.20;83.00;;;;;;4912434;29;20055;-55
2022/08/06 04:11:12;;;;;;;9.18;5.43;;;15.20;83.30;;;;;;4927836;29;20102;-54
2022/08/06 04:13:59;;;;;;;9.52;4.97;;;15.10;83.70;;;;;;4899398;29;20513;-53
2022/08/06 04:16:33;;;;;;;8.57;5.30;;;15.10;84.30;;;;;;4942373;29;20060;-55
2022/08/06 04:19:02;;;;;;;10.50;5.45;;;15.00;85.00;;;;;;4932334;29;20495;-55
2022/08/06 04:21:29;;;;;;;8.85;5.97;;;15.00;85.10;;;;;;4911597;29;20056;-54
2022/08/06 04:24:16;;;;;;;7.75;5.25;;;15.00;85.20;;;;;;4931962;28;20052;-52
2022/08/06 04:26:44;;;;;;;9.40;5.40;;;15.00;85.30;;;;;;4931649;29;20086;-54
2022/08/06 04:29:16;;;;;;;9.27;6.50;;;14.90;86.20;;;;;;4931854;29;20479;-55
2022/08/06 04:31:45;;;;;;;9.20;5.75;;;14.90;87.50;;;;;;4930263;29;20124;-55
2022/08/06 04:34:32;;;;;;;12.45;6.47;;;14.90;86.70;;;;;;4918066;29;20048;-54
2022/08/06 04:37:03;;;;;;;11.32;5.38;;;14.80;86.50;;;;;;4915330;29;20075;-52
2022/08/06 04:39:30;;;;;;;9.93;6.00;;;14.80;86.70;;;;;;4930120;29;20063;-51
2022/08/06 04:42:14;;;;;;;9.90;5.40;;;14.80;87.00;;;;;;4916431;29;20048;-54
2022/08/06 04:44:41;;;;;;;11.00;6.05;;;14.80;87.10;;;;;;4930320;29;20047;-53
2022/08/06 04:47:10;;;;;;;10.07;6.40;;;14.80;87.40;;;;;;4914565;29;20067;-55
2022/08/06 04:49:40;;;;;;;8.15;5.82;;;14.80;87.80;;;;;;4930236;29;20090;-54
2022/08/06 04:52:27;;;;;;;13.23;6.90;;;14.70;88.10;;;;;;4930509;29;20048;-51
2022/08/06 04:55:14;;;;;;;10.75;6.95;;;14.70;88.20;;;;;;4912550;29;20056;-53
2022/08/06 04:58:00;;;;;;;12.90;6.25;;;14.80;88.20;;;;;;4927278;29;20519;-53
2022/08/06 05:00:35;;;;;;;13.38;6.57;;;14.70;88.30;;;;;;4930164;29;20142;-52
2022/08/06 05:03:22;;;;;;;13.88;7.32;;;14.80;88.80;;;;;;4930948;28;20056;-53
2022/08/06 05:06:10;;;;;;;10.85;6.32;;;14.80;88.70;;;;;;4931538;29;20055;-54
2022/08/06 05:08:40;;;;;;;13.48;6.68;;;14.80;89.00;;;;;;4928877;29;20496;-55
2022/08/06 05:11:40;;;;;;;11.52;6.45;;;14.80;89.30;;;;;;4914733;29;20047;-52
2022/08/06 05:14:28;;;;;;;17.88;6.32;;;14.80;90.50;;;;;;4930825;29;20051;-54
2022/08/06 05:16:55;;;;;;;13.43;7.28;;;14.80;90.10;;;;;;4930898;29;20091;-53
2022/08/06 05:19:35;;;;;;;17.67;6.78;;;14.80;89.60;;;;;;4929780;29;20134;-54
2022/08/06 05:22:02;;;;;;;15.75;8.88;;;14.70;91.70;;;;;;4930761;29;20489;-57
2022/08/06 05:24:37;;;;;;;12.68;7.60;;;14.70;90.30;;;;;;4931018;29;20044;-52
2022/08/06 05:27:24;;;;;;;15.80;6.80;;;14.70;90.50;;;;;;4930565;29;20051;-55
2022/08/06 05:30:11;;;;;;;9.10;6.82;;;14.70;90.60;;;;;;4930266;29;20051;-55
2022/08/06 05:32:44;;;;;;;14.23;7.57;;;14.70;90.70;;;;;;4930797;29;20050;-53
2022/08/06 05:35:16;;;;;;;12.23;7.70;;;14.70;91.50;;;;;;4929918;29;20048;-55
2022/08/06 05:37:44;;;;;;;12.98;7.53;;;14.70;90.80;;;;;;4930592;29;20039;-55
2022/08/06 05:40:33;;;;;;;12.32;7.95;;;14.70;91.00;;;;;;4921261;29;20503;-53
2022/08/06 05:43:20;;;;;;;9.27;6.60;;;14.70;91.20;;;;;;4918408;29;20043;-56
2022/08/06 05:45:49;;;;;;;11.60;7.40;;;14.70;91.60;;;;;;4930913;29;20457;-55
2022/08/06 05:48:17;;;;;;;11.88;7.57;;;14.70;92.20;;;;;;4929270;29;20207;-54
2022/08/06 05:51:04;;;;;;;27.38;7.80;;;14.70;92.10;;;;;;4929896;29;20052;-54
2022/08/06 05:53:42;;;;;;;15.10;7.70;;;14.80;92.80;;;;;;4929460;29;20047;-54
2022/08/06 05:56:31;;;;;;;12.50;7.93;;;14.80;92.30;;;;;;4930922;29;20135;-55
2022/08/06 05:59:08;;;;;;;19.95;7.80;;;14.80;92.10;;;;;;4929028;29;20495;-55
2022/08/06 06:01:55;;;;;;;14.88;7.40;;;14.90;92.70;;;;;;4916609;29;20075;-55
2022/08/06 06:04:21;;;;;;;11.27;6.75;;;14.90;91.90;;;;;;4929269;29;20083;-54
2022/08/06 06:06:59;;;;;;;16.42;7.13;;;14.90;92.10;;;;;;4929446;29;20527;-55
2022/08/06 06:09:30;;;;;;;16.33;7.97;;;15.00;92.00;;;;;;4930225;29;20047;-50
2022/08/06 06:12:17;;;;;;;11.85;7.13;;;15.10;92.00;;;;;;4929552;29;20051;-55
2022/08/06 06:14:48;;;;;;;19.60;8.50;;;15.10;91.90;;;;;;4929206;29;20047;-55
2022/08/06 06:17:33;;;;;;;17.58;8.48;;;15.20;92.00;;;;;;4913703;29;20055;-55
2022/08/06 06:20:14;;;;;;;12.38;7.70;;;15.30;93.20;;;;;;4930730;29;20040;-54
2022/08/06 06:23:04;;;;;;;14.15;7.32;;;15.30;92.50;;;;;;4929921;29;20047;-52
2022/08/06 06:25:58;;;;;;;14.73;7.22;;;15.30;93.30;;;;;;4933747;29;20094;-55
2022/08/06 06:28:33;;;;;;;;;;;15.40;93.50;;;;;;4915610;29;20052;-51
2022/08/06 06:31:19;;;;;;;12.15;7.10;;;15.40;93.80;;;;;;4931000;29;20022;-54
2022/08/06 06:34:13;;;;;;;13.23;7.47;;;15.50;92.40;;;;;;4932842;29;20396;-54
2022/08/06 06:36:42;;;;;;;16.52;7.90;;;15.50;92.00;;;;;;4931675;29;20050;-55
2022/08/06 06:39:36;;;;;;;15.55;7.85;;;15.40;91.70;;;;;;4933507;29;20504;-53
2022/08/06 06:42:13;;;;;;;15.50;8.15;;;15.60;92.80;;;;;;4919311;29;20051;-52
2022/08/06 06:45:18;;;;;;;16.33;7.93;;;15.60;92.20;;;;;;4932789;29;20094;-51
2022/08/06 06:48:31;;;;;;;13.23;7.63;;;15.70;92.60;;;;;;4933559;29;20067;-53
2022/08/06 06:51:02;;;;;;;18.87;8.63;;;15.80;92.20;;;;;;4932425;29;20043;-52
2022/08/06 06:53:37;;;;;;;24.13;8.85;;;15.80;91.80;;;;;;4933794;29;20063;-54
2022/08/06 06:56:29;;;;;;;19.27;9.40;;;15.70;91.90;;;;;;4913363;29;20491;-52
2022/08/06 06:59:03;;;;;;;14.70;8.00;;;15.80;92.30;;;;;;4932303;29;20059;-55
2022/08/06 07:01:38;;;;;;;14.45;7.95;;;15.90;92.00;;;;;;4931769;29;20055;-54
2022/08/06 07:04:08;;;;;;;12.85;7.75;;;16.00;92.10;;;;;;4933117;29;20062;-51
2022/08/06 07:06:36;;;;;;;16.92;8.52;;;16.00;91.90;;;;;;4916405;29;20134;-54
2022/08/06 07:09:17;;;;;;;18.27;7.95;;;16.10;91.80;;;;;;4932871;29;20122;-49
2022/08/06 07:12:04;;;;;;;20.20;8.25;;;16.10;92.10;;;;;;4931478;29;20048;-50
2022/08/06 07:14:45;;;;;;;11.07;7.45;;;16.10;91.70;;;;;;4931717;29;20059;-50
2022/08/06 07:17:18;;;;;;;13.60;7.68;;;16.10;91.50;;;;;;4916266;29;20108;-50
2022/08/06 07:20:07;;;;;;;12.20;7.45;;;16.10;91.50;;;;;;4912853;29;20056;-51
2022/08/06 07:22:41;;;;;;;10.40;8.05;;;16.20;91.50;;;;;;4946577;29;20427;-52
2022/08/06 07:25:27;;;;;;;10.93;7.03;;;16.20;91.90;;;;;;4931726;29;20142;-53
2022/08/06 07:27:56;;;;;;;15.43;8.20;;;16.30;91.50;;;;;;4932494;28;20477;-53
2022/08/06 07:30:25;;;;;;;13.57;7.38;;;16.40;91.40;;;;;;4932000;29;20094;-53
2022/08/06 07:32:54;;;;;;;10.90;7.03;;;16.40;91.40;;;;;;4586651;28;10000256;-51
2022/08/06 07:35:23;;;;;;;18.48;8.07;;;16.40;91.40;;;;;;4909256;29;20055;-53
2022/08/06 07:37:56;;;;;;;10.63;7.20;;;16.50;91.20;;;;;;4923750;29;20435;-55
2022/08/06 07:40:32;;;;;;;11.82;8.20;;;16.40;91.40;;;;;;4928669;29;20515;-51
2022/08/06 07:43:21;;;;;;;14.60;8.38;;;16.40;91.40;;;;;;4927719;29;20087;-52
2022/08/06 07:45:51;;;;;;;13.23;7.72;;;16.50;91.30;;;;;;4924574;28;20056;-58
2022/08/06 07:48:32;;;;;;;15.13;7.43;;;16.40;91.30;;;;;;4912892;29;20052;-54
2022/08/06 07:51:00;;;;;;;15.20;7.70;;;16.40;91.90;;;;;;4908157;29;20512;-54
2022/08/06 07:53:31;;;;;;;15.15;8.10;;;16.50;91.30;;;;;;4922057;29;20075;-55
2022/08/06 07:56:18;;;;;;;13.15;7.30;;;16.60;91.20;;;;;;4919200;29;20066;-54
2022/08/06 07:58:45;;;;;;;15.25;8.18;;;16.60;91.00;;;;;;4927047;29;20555;-54
2022/08/06 08:01:12;;;;;;;12.15;7.45;;;16.60;91.00;;;;;;4922963;29;20148;-51
2022/08/06 08:06:51;;;;;;;12.88;7.30;;;16.50;91.60;;;;;;4909823;29;20147;-53
2022/08/06 08:09:21;;;;;;;13.55;7.47;;;16.60;91.20;;;;;;4940481;29;20138;-54
2022/08/06 08:11:54;;;;;;;12.70;7.38;;;16.70;90.90;;;;;;4927757;29;20048;-53
2022/08/06 08:14:43;;;;;;;13.15;7.47;;;16.70;90.40;;;;;;4927089;29;20062;-50
2022/08/06 08:17:15;;;;;;;11.07;7.40;;;16.90;90.40;;;;;;4928642;28;20490;-52
2022/08/06 08:19:55;;;;;;;12.20;7.18;;;17.00;90.00;;;;;;4928029;29;20499;-55
2022/08/06 08:22:22;;;;;;;14.95;7.75;;;17.00;90.00;;;;;;4911561;29;20052;-53
2022/08/06 08:24:50;;;;;;;18.60;8.85;;;17.10;89.50;;;;;;4928593;29;20138;-51
2022/08/06 08:27:21;;;;;;;13.25;7.75;;;17.20;89.10;;;;;;4928635;29;20351;-54
2022/08/06 08:29:52;;;;;;;13.75;8.43;;;17.30;88.80;;;;;;4928631;29;20066;-52
2022/08/06 08:32:25;;;;;;;;;;;17.40;88.20;;;;;;4920317;29;20052;-54
2022/08/06 08:34:52;;;;;;;14.02;8.48;;;17.40;87.70;;;;;;4928228;29;20045;-55
2022/08/06 08:37:23;;;;;;;16.00;8.23;;;17.50;86.80;;;;;;4928098;29;20106;-54
2022/08/06 08:39:50;;;;;;;18.58;7.75;;;17.40;87.20;;;;;;4926599;29;20591;-53
2022/08/06 08:42:32;;;;;;;14.27;7.78;;;17.60;87.20;;;;;;4928103;29;20056;-57
2022/08/06 08:45:02;;;;;;;12.20;7.65;;;17.70;86.20;;;;;;4911852;29;20071;-56
2022/08/06 08:47:29;;;;;;;13.52;7.00;;;17.80;85.60;;;;;;4928369;29;20102;-55
2022/08/06 08:50:12;;;;;;;11.27;6.50;;;17.90;84.30;;;;;;4927142;29;20106;-57
2022/08/06 08:52:44;;;;;;;13.65;7.72;;;17.80;83.70;;;;;;4912162;29;20058;-52
2022/08/06 08:55:11;;;;;;;14.98;7.03;;;17.60;83.80;;;;;;4926398;29;20043;-56
2022/08/06 08:57:58;;;;;;;9.40;6.00;;;17.70;84.40;;;;;;4927878;29;20062;-54
2022/08/06 09:00:45;;;;;;;8.25;5.05;;;17.90;82.80;;;;;;4927966;29;20052;-54
2022/08/06 09:03:20;;;;;;;9.23;4.30;;;17.90;81.80;;;;;;4928096;29;20056;-53
2022/08/06 09:05:49;;;;;;;9.98;5.45;;;17.80;81.20;;;;;;4927544;29;20295;-56
2022/08/06 09:08:19;;;;;;;13.07;5.35;;;18.00;81.70;;;;;;4927232;29;20093;-51
2022/08/06 09:11:06;;;;;;;11.98;5.32;;;18.20;81.60;;;;;;4913546;29;20055;-56
2022/08/06 09:13:53;;;;;;;9.48;5.55;;;18.40;80.50;;;;;;4908377;29;20055;-54
2022/08/06 09:16:31;;;;;;;14.07;5.25;;;18.50;79.50;;;;;;4937484;29;20425;-57
2022/08/06 09:19:05;;;;;;;7.38;5.00;;;18.60;78.00;;;;;;4928018;29;20090;-56
2022/08/06 09:21:37;;;;;;;14.68;5.72;;;18.70;76.50;;;;;;4927188;29;20484;-55
2022/08/06 09:24:09;;;;;;;10.88;5.30;;;18.60;76.30;;;;;;4912209;29;20587;-56
2022/08/06 09:27:04;;;;;;;10.80;4.40;;;18.60;76.80;;;;;;4927232;29;20071;-51
2022/08/06 09:29:52;;;;;;;11.27;4.65;;;18.80;74.40;;;;;;4908929;29;20044;-54
2022/08/06 09:32:44;;;;;;;9.60;5.63;;;19.00;73.90;;;;;;4927127;29;20055;-53
2022/08/06 09:35:24;;;;;;;10.75;5.32;;;19.10;72.20;;;;;;4926734;29;20083;-55
2022/08/06 09:38:11;;;;;;;9.57;4.78;;;19.10;72.30;;;;;;4927879;28;20044;-54
2022/08/06 09:41:01;;;;;;;8.35;5.00;;;19.10;71.30;;;;;;4926546;29;20087;-54
2022/08/06 09:43:29;;;;;;;12.35;4.85;;;19.10;70.40;;;;;;4915541;29;20107;-52
2022/08/06 09:46:17;;;;;;;6.18;4.28;;;19.30;70.80;;;;;;4927511;29;20051;-53
2022/08/06 09:48:57;;;;;;;5.03;3.78;;;19.50;68.90;;;;;;4926366;29;20063;-54
2022/08/06 09:51:43;;;;;;;10.32;4.30;;;19.60;64.60;;;;;;4927022;29;20145;-56
2022/08/06 09:54:17;;;;;;;10.32;4.68;;;19.60;66.30;;;;;;4926402;29;20070;-53
2022/08/06 09:56:59;;;;;;;5.28;4.22;;;19.60;66.60;;;;;;4929247;29;20395;-54
2022/08/06 09:59:26;;;;;;;9.50;3.92;;;20.00;64.30;;;;;;4928118;29;20059;-52
2022/08/06 10:01:59;;;;;;;11.65;4.68;;;20.20;63.40;;;;;;4923988;29;20071;-54
2022/08/06 10:04:27;;;;;;;8.70;4.00;;;20.60;63.50;;;;;;4935895;29;20087;-54
2022/08/06 10:07:03;;;;;;;9.50;4.05;;;20.90;61.10;;;;;;4922254;29;20048;-53
2022/08/06 10:09:35;;;;;;;6.50;3.78;;;21.30;61.30;;;;;;4929943;29;20067;-51
2022/08/06 10:12:22;;;;;;;7.60;3.97;;;21.80;61.60;;;;;;4930603;29;20054;-54
2022/08/06 10:14:52;;;;;;;8.38;4.35;;;21.90;57.40;;;;;;4931167;28;20066;-56
2022/08/06 10:17:22;;;;;;;6.13;3.90;;;21.30;59.50;;;;;;4929235;29;20118;-56
2022/08/06 10:20:13;;;;;;;8.05;4.38;;;21.10;60.60;;;;;;4929740;29;20094;-53
2022/08/06 10:22:54;;;;;;;6.93;4.20;;;21.30;57.70;;;;;;4929824;29;20138;-56
2022/08/06 10:25:24;;;;;;;10.27;3.75;;;21.40;57.80;;;;;;4929407;29;20149;-59
2022/08/06 10:27:56;;;;;;;6.22;3.85;;;21.70;58.10;;;;;;4930535;29;20070;-55
2022/08/06 10:30:23;;;;;;;10.50;4.00;;;21.70;59.00;;;;;;4930597;29;20561;-57
2022/08/06 10:33:01;;;;;;;6.53;3.78;;;22.00;58.50;;;;;;4913366;29;20275;-54
2022/08/06 10:35:28;;;;;;;5.85;3.72;;;22.20;54.50;;;;;;4929352;29;20060;-55
2022/08/06 10:37:58;;;;;;;6.80;3.72;;;21.90;55.40;;;;;;4910191;29;20047;-56
2022/08/06 10:40:38;;;;;;;10.05;4.53;;;22.00;56.80;;;;;;4929093;29;20056;-53
2022/08/06 10:43:07;;;;;;;6.20;4.65;;;22.00;56.70;;;;;;4921480;29;20346;-57
2022/08/06 10:45:38;;;;;;;9.90;4.47;;;22.20;56.10;;;;;;4924122;29;20059;-53
2022/08/06 10:48:16;;;;;;;12.27;4.45;;;22.40;57.50;;;;;;4916198;29;20130;-51
2022/08/06 10:51:04;;;;;;;8.90;4.20;;;22.50;56.40;;;;;;4930244;29;20447;-54
2022/08/06 10:53:34;;;;;;;8.75;4.10;;;22.50;56.30;;;;;;4932945;29;20052;-53
2022/08/06 10:56:21;;;;;;;8.25;3.85;;;22.30;55.40;;;;;;4932651;28;20059;-53
2022/08/06 10:58:58;;;;;;;10.27;4.32;;;22.20;56.00;;;;;;4939764;29;20062;-52
2022/08/06 11:01:49;;;;;;;8.55;4.13;;;22.10;55.40;;;;;;4926597;29;20047;-55
2022/08/06 11:04:47;;;;;;;8.52;3.90;;;21.50;54.00;;;;;;4925055;29;20050;-56
2022/08/06 11:07:22;;;;;;;9.25;4.07;;;21.60;55.30;;;;;;4929908;29;20044;-51
2022/08/06 11:10:23;;;;;;;5.75;3.72;;;21.80;54.60;;;;;;4927979;29;20051;-52
2022/08/06 11:12:57;;;;;;;8.55;4.10;;;21.70;54.50;;;;;;4913464;29;20052;-55
2022/08/06 11:15:24;;;;;;;7.47;3.95;;;21.70;54.50;;;;;;4942739;29;20142;-55
2022/08/06 11:18:02;;;;;;;11.02;3.78;;;21.70;55.30;;;;;;4926227;29;20131;-55
2022/08/06 11:20:39;;;;;;;10.10;4.40;;;21.70;55.40;;;;;;4928643;29;20734;-54
2022/08/06 11:23:12;;;;;;;7.05;4.03;;;21.80;54.70;;;;;;4914207;29;20060;-55
2022/08/06 11:26:01;;;;;;;6.97;4.60;;;21.80;54.20;;;;;;4931223;29;20053;-53
2022/08/06 11:28:28;;;;;;;7.05;3.90;;;21.70;54.00;;;;;;4931844;29;20091;-53
2022/08/06 11:30:56;;;;;;;9.43;3.97;;;21.40;54.00;;;;;;4932965;29;20047;-54
2022/08/06 11:33:33;;;;;;;6.93;4.25;;;21.40;53.70;;;;;;4932819;29;20138;-52
2022/08/06 11:36:12;;;;;;;7.68;4.93;;;21.30;52.90;;;;;;4932347;29;20151;-55
2022/08/06 11:38:46;;;;;;;5.50;3.63;;;21.10;53.80;;;;;;4912883;29;20102;-50
2022/08/06 11:41:27;;;;;;;6.60;3.80;;;21.20;54.50;;;;;;4928951;29;20083;-53
2022/08/06 11:44:18;;;;;;;7.00;5.25;;;21.30;54.10;;;;;;4929587;29;20087;-54
2022/08/06 11:47:06;;;;;;;7.40;4.82;;;21.50;54.00;;;;;;4928861;29;20083;-53
2022/08/06 11:49:37;;;;;;;7.15;3.90;;;21.60;53.30;;;;;;4929819;29;20071;-56
2022/08/06 11:52:09;;;;;;;5.75;3.97;;;21.70;53.90;;;;;;4929430;28;20044;-54
2022/08/06 11:54:46;;;;;;;13.05;4.43;;;21.90;53.60;;;;;;4928226;29;20542;-55
2022/08/06 11:57:13;;;;;;;8.68;3.92;;;21.90;51.30;;;;;;4929361;29;20054;-53
2022/08/06 12:00:03;;;;;;;8.18;3.95;;;21.90;52.90;;;;;;4929517;29;20060;-50
2022/08/06 12:02:41;;;;;;;12.85;4.30;;;22.00;52.80;;;;;;4929114;29;20059;-54
2022/08/06 12:05:13;;;;;;;26.50;5.75;;;22.10;51.30;;;;;;4929308;29;20054;-55
2022/08/06 12:07:49;;;;;;;10.98;3.97;;;22.20;52.10;;;;;;4928698;29;20169;-50
2022/08/06 12:10:18;;;;;;;7.47;4.28;;;22.30;52.30;;;;;;4929492;29;20729;-50
2022/08/06 12:12:55;;;;;;;6.93;3.88;;;22.40;51.90;;;;;;4928912;28;20518;-54
2022/08/06 12:15:26;;;;;;;6.72;3.45;;;22.40;52.30;;;;;;4929362;29;20052;-53
2022/08/06 12:18:13;;;;;;;6.55;3.00;;;22.50;51.30;;;;;;4925715;29;20043;-55
2022/08/06 12:20:55;;;;;;;5.82;3.55;;;22.40;50.90;;;;;;4927446;29;20131;-56
2022/08/06 12:23:22;;;;;;;7.72;3.80;;;22.40;51.60;;;;;;4927643;29;20055;-56
2022/08/06 12:26:12;;;;;;;11.68;3.95;;;22.50;51.70;;;;;;4927543;29;20058;-56
2022/08/06 12:28:40;;;;;;;5.43;4.20;;;22.70;51.40;;;;;;4928955;29;20059;-53
2022/08/06 12:31:09;;;;;;;6.47;3.38;;;22.80;51.10;;;;;;4928401;29;20392;-57
2022/08/06 12:33:56;;;;;;;5.72;3.90;;;22.80;50.90;;;;;;4927613;29;20081;-54
2022/08/06 12:36:28;;;;;;;8.60;3.72;;;22.40;49.20;;;;;;4928624;29;20474;-55
2022/08/06 12:39:03;;;;;;;9.00;3.85;;;22.60;50.30;;;;;;4926349;29;20051;-52
2022/08/06 12:41:34;;;;;;;4.60;3.45;;;22.80;50.90;;;;;;4928532;29;20613;-56
2022/08/06 12:44:13;;;;;;;8.70;4.00;;;22.90;49.80;;;;;;4927385;29;20138;-50
2022/08/06 12:46:40;;;;;;;7.80;3.45;;;23.00;50.50;;;;;;4925091;29;20051;-55
2022/08/06 12:49:09;;;;;;;5.82;3.45;;;23.10;50.60;;;;;;4928612;29;20079;-54
2022/08/06 12:51:36;;;;;;;7.63;3.10;;;23.20;50.40;;;;;;4928488;29;20048;-54
2022/08/06 12:54:05;;;;;;;6.25;3.35;;;23.30;49.90;;;;;;4928173;29;20571;-54
2022/08/06 12:56:35;;;;;;;8.07;3.53;;;23.30;49.60;;;;;;4927963;29;20147;-55
2022/08/06 12:59:06;;;;;;;6.68;3.72;;;23.30;49.80;;;;;;4926582;29;20050;-53
2022/08/06 13:01:50;;;;;;;3.53;2.97;;;23.30;49.10;;;;;;4928549;29;20066;-55
2022/08/06 13:04:37;;;;;;;5.65;3.58;;;23.20;49.20;;;;;;4927179;29;20051;-56
2022/08/06 13:07:05;;;;;;;4.28;3.20;;;23.30;48.70;;;;;;4926901;29;20055;-55
2022/08/06 13:09:39;;;;;;;4.20;2.95;;;23.40;49.40;;;;;;4911053;29;20051;-56
2022/08/06 13:12:26;;;;;;;4.07;3.28;;;23.40;48.40;;;;;;4926877;29;20526;-55
2022/08/06 13:15:12;;;;;;;5.50;3.40;;;23.40;49.30;;;;;;4927408;29;20075;-52
2022/08/06 13:18:11;;;;;;;7.53;3.45;;;23.50;49.10;;;;;;4928265;29;20059;-53
2022/08/06 13:20:58;;;;;;;3.50;2.72;;;23.80;46.60;;;;;;4919613;29;20047;-54
2022/08/06 13:23:35;;;;;;;6.72;3.60;;;23.50;47.20;;;;;;4927879;29;20106;-54
2022/08/06 13:26:22;;;;;;;4.82;3.45;;;23.50;47.50;;;;;;4926585;29;20051;-53
2022/08/06 13:29:30;;;;;;;4.45;3.20;;;23.70;47.20;;;;;;4925624;29;20102;-52
2022/08/06 13:32:17;;;;;;;6.53;2.55;;;23.80;47.10;;;;;;4926917;29;20062;-54
2022/08/06 13:35:05;;;;;;;14.23;5.03;;;24.10;48.60;;;;;;4924882;29;20056;-51
2022/08/06 13:37:47;;;;;;;13.80;3.63;;;24.20;47.60;;;;;;4919871;29;20107;-53